Weather History for Cody, WY

Change the Weather History Date:

Thursday, March 14, 2013

  Actual Average Record
Temperature  
Mean Temperature 56 °F -  
Max Temperature 66 °F 46 °F 74 °F (1935)
Min Temperature 46 °F 24 °F -6 °F (1944)
Degree Days  
Heating Degree Days 9    
Growing Degree Days 6 (Base 50)    
Moisture  
Dew Point 24 °F    
Average Humidity 28    
Maximum Humidity 43    
Minimum Humidity 18    
Precipitation  
Precipitation 0.00 in - - ()
Sea Level Pressure  
Sea Level Pressure 30.12 in    
Wind  
Wind Speed 11 mph (West)    
Max Wind Speed 18 mph    
Max Gust Speed 28 mph    
Visibility 10 miles    
Events      
Averages and records for this station are not official NWS values.
T = Trace of Precipitation, MM = Missing Value Source: NWS Daily Summary

Daily Weather History Graph

Daily Weather History Graph

Search for Another Location

Airport:

Trip Planner

Search our weather history database for the weather conditions in past years. The results will help you decide how hot, cold, wet, or windy it might be!

Date:

Astronomy

Mar. 14, 2013 Rise Set
Actual Time 7:29 AM MDT 7:21 PM MDT
Civil Twilight 7:00 AM MDT 7:50 PM MDT
Nautical Twilight 6:26 AM MDT 8:24 PM MDT
Astronomical Twilight 5:52 AM MDT 8:58 PM MDT
Moon 8:36 AM MDT (3/14) 10:50 PM MDT (3/14)
Length of Visible Light 12h 49m
Length of Day
11h 51m
Waxing Crescent, 9% of the Moon is Illuminated
Mar 14
Waxing Crescent
Mar 19
First Quarter
Mar 27
Full
Apr 2
Last Quarter
Apr 10
New

Hourly Weather History & Observations

Time (MDT) Temp. Windchill Dew Point Humidity Pressure Visibility Wind Dir Wind Speed Gust Speed Precip Events Conditions
12:15 AM 55.4 °F - 24.8 °F 31% 30.15 in 10.0 mi WSW 10.4 mph 27.6 mph N/A   Scattered Clouds
12:55 AM 53.6 °F - 26.6 °F 35% 30.17 in 10.0 mi West 10.4 mph 17.3 mph N/A   Mostly Cloudy
1:15 AM 53.6 °F - 24.8 °F 33% 30.17 in 10.0 mi NW 10.4 mph - N/A   Mostly Cloudy
1:35 AM 53.6 °F - 26.6 °F 35% 30.17 in 10.0 mi WNW 9.2 mph 18.4 mph N/A   Scattered Clouds
1:55 AM 53.6 °F - 26.6 °F 35% 30.18 in 10.0 mi West 6.9 mph - N/A   Mostly Cloudy
2:15 AM 53.6 °F - 26.6 °F 35% 30.19 in 10.0 mi WSW 11.5 mph 20.7 mph N/A   Overcast
2:35 AM 53.6 °F - 26.6 °F 35% 30.19 in 10.0 mi WSW 9.2 mph - N/A   Overcast
2:55 AM 53.6 °F - 26.6 °F 35% 30.19 in 10.0 mi WNW 10.4 mph 16.1 mph N/A   Overcast
3:35 AM 53.6 °F - 26.6 °F 35% 30.17 in 10.0 mi WSW 13.8 mph 19.6 mph N/A   Overcast
3:55 AM 53.6 °F - 26.6 °F 35% 30.17 in 10.0 mi WSW 16.1 mph 23.0 mph N/A   Scattered Clouds
4:15 AM 53.6 °F - 26.6 °F 35% 30.16 in 10.0 mi WSW 10.4 mph 26.5 mph N/A   Partly Cloudy
4:55 AM 53.6 °F - 28.4 °F 38% 30.15 in 10.0 mi West 5.8 mph 19.6 mph N/A   Clear
5:15 AM 51.8 °F - 26.6 °F 38% 30.17 in 10.0 mi WNW 12.7 mph 18.4 mph N/A   Clear
5:35 AM 53.6 °F - 28.4 °F 38% 30.17 in 10.0 mi WNW 16.1 mph 20.7 mph N/A   Clear
5:55 AM 51.8 °F - 28.4 °F 41% 30.17 in 10.0 mi WNW 12.7 mph 18.4 mph N/A   Clear
6:15 AM 51.8 °F - 26.6 °F 38% 30.17 in 10.0 mi West 9.2 mph - N/A   Clear
6:35 AM 51.8 °F - 26.6 °F 38% 30.17 in 10.0 mi WNW 9.2 mph 16.1 mph N/A   Clear
6:55 AM 51.8 °F - 26.6 °F 38% 30.17 in 10.0 mi WSW 9.2 mph 19.6 mph N/A   Clear
7:15 AM 53.6 °F - 26.6 °F 35% 30.17 in 10.0 mi SW 15.0 mph 18.4 mph N/A   Clear
7:35 AM 53.6 °F - 26.6 °F 35% 30.16 in 10.0 mi SW 16.1 mph 26.5 mph N/A   Clear
7:55 AM 46.4 °F 42.9 °F 24.8 °F 43% 30.17 in 10.0 mi NW 6.9 mph - N/A   Clear
8:15 AM 53.6 °F - 28.4 °F 38% 30.17 in 10.0 mi NNW 4.6 mph 17.3 mph N/A   Clear
8:35 AM 51.8 °F - 28.4 °F 41% 30.17 in 10.0 mi WNW 3.5 mph - N/A   Clear
8:55 AM 53.6 °F - 26.6 °F 35% 30.18 in 10.0 mi NW 4.6 mph - N/A   Clear
9:35 AM 53.6 °F - 28.4 °F 38% 30.17 in 10.0 mi NNW 6.9 mph - N/A   Clear
9:55 AM 57.2 °F - 28.4 °F 33% 30.17 in 10.0 mi West 8.1 mph - N/A   Clear
10:15 AM 59.0 °F - 26.6 °F 29% 30.16 in 10.0 mi SW 17.3 mph 24.2 mph N/A   Clear
10:55 AM 60.8 °F - 24.8 °F 25% 30.14 in 10.0 mi WSW 18.4 mph 26.5 mph N/A   Clear
11:15 AM 60.8 °F - 24.8 °F 25% 30.14 in 10.0 mi WSW 12.7 mph 24.2 mph N/A   Clear
11:35 AM 62.6 °F - 26.6 °F 26% 30.14 in 10.0 mi WSW 10.4 mph 20.7 mph N/A   Clear
11:55 AM 62.6 °F - 24.8 °F 24% 30.14 in 10.0 mi West 16.1 mph 24.2 mph N/A   Clear
12:15 PM 64.4 °F - 26.6 °F 24% 30.13 in 10.0 mi West 16.1 mph 24.2 mph N/A   Clear
12:35 PM 62.6 °F - 24.8 °F 24% 30.12 in 10.0 mi WSW 15.0 mph 25.3 mph N/A   Clear
12:55 PM 64.4 °F - 24.8 °F 22% 30.12 in 10.0 mi West 10.4 mph 23.0 mph N/A   Clear
1:15 PM 66.2 °F - 24.8 °F 21% 30.12 in 10.0 mi West 16.1 mph 21.9 mph N/A   Clear
1:35 PM 64.4 °F - 24.8 °F 22% 30.12 in 10.0 mi WNW 10.4 mph 23.0 mph N/A   Clear
1:55 PM 66.2 °F - 24.8 °F 21% 30.11 in 10.0 mi West 12.7 mph 23.0 mph N/A   Clear
2:15 PM 64.4 °F - 24.8 °F 22% 30.10 in 10.0 mi WSW 13.8 mph 18.4 mph N/A   Clear
2:35 PM 64.4 °F - 23.0 °F 21% 30.11 in 10.0 mi West 17.3 mph 20.7 mph N/A   Clear
2:55 PM 64.4 °F - 23.0 °F 21% 30.10 in 10.0 mi West 15.0 mph 20.7 mph N/A   Clear
3:15 PM 64.4 °F - 23.0 °F 21% 30.10 in 10.0 mi West 13.8 mph 20.7 mph N/A   Clear
3:35 PM 64.4 °F - 23.0 °F 21% 30.10 in 10.0 mi West 9.2 mph 16.1 mph N/A   Clear
3:55 PM 64.4 °F - 21.2 °F 19% 30.10 in 10.0 mi West 10.4 mph 19.6 mph N/A   Clear
4:15 PM 66.2 °F - 23.0 °F 19% 30.09 in 10.0 mi West 13.8 mph 19.6 mph N/A   Clear
4:35 PM 66.2 °F - 23.0 °F 19% 30.09 in 10.0 mi West 13.8 mph 25.3 mph N/A   Clear
4:55 PM 66.2 °F - 23.0 °F 19% 30.09 in 10.0 mi WSW 16.1 mph 21.9 mph N/A   Clear
5:15 PM 66.2 °F - 23.0 °F 19% 30.09 in 10.0 mi WSW 15.0 mph 20.7 mph N/A   Clear
5:35 PM 66.2 °F - 21.2 °F 18% 30.09 in 10.0 mi WSW 15.0 mph 21.9 mph N/A   Clear
5:55 PM 64.4 °F - 19.4 °F 18% 30.08 in 10.0 mi WSW 12.7 mph 20.7 mph N/A   Scattered Clouds
6:15 PM 64.4 °F - 19.4 °F 18% 30.08 in 10.0 mi SW 12.7 mph - N/A   Mostly Cloudy
6:35 PM 62.6 °F - 19.4 °F 19% 30.08 in 10.0 mi WSW 15.0 mph 20.7 mph N/A   Mostly Cloudy
6:55 PM 62.6 °F - 19.4 °F 19% 30.07 in 10.0 mi WSW 11.5 mph 21.9 mph N/A   Partly Cloudy
7:35 PM 60.8 °F - 17.6 °F 19% 30.06 in 10.0 mi West 13.8 mph 19.6 mph N/A   Clear
7:55 PM 60.8 °F - 19.4 °F 20% 30.05 in 10.0 mi West 9.2 mph 19.6 mph N/A   Clear
8:15 PM 59.0 °F - 19.4 °F 22% 30.05 in 10.0 mi West 12.7 mph 16.1 mph N/A   Clear
8:35 PM 59.0 °F - 19.4 °F 22% 30.05 in 10.0 mi West 9.2 mph 17.3 mph N/A   Clear
8:55 PM 57.2 °F - 19.4 °F 23% 30.04 in 10.0 mi West 5.8 mph 17.3 mph N/A   Clear
9:15 PM 57.2 °F - 19.4 °F 23% 30.04 in 10.0 mi WSW 6.9 mph - N/A   Clear
9:35 PM 57.2 °F - 19.4 °F 23% 30.03 in 10.0 mi SW 10.4 mph - N/A   Clear
9:55 PM 57.2 °F - 19.4 °F 23% 30.03 in 10.0 mi WSW 8.1 mph - N/A   Clear
10:15 PM 55.4 °F - 19.4 °F 25% 30.03 in 10.0 mi WSW 6.9 mph - N/A   Clear
10:35 PM 55.4 °F - 19.4 °F 25% 30.04 in 10.0 mi WSW 6.9 mph - N/A   Clear
10:55 PM 53.6 °F - 19.4 °F 26% 30.03 in 10.0 mi WSW 5.8 mph - N/A   Clear
11:15 PM 53.6 °F - 19.4 °F 26% 30.02 in 10.0 mi South 6.9 mph - N/A   Clear
11:35 PM 48.2 °F - 17.6 °F 30% 30.02 in 10.0 mi SSE 8.1 mph - N/A   Clear
11:55 PM 53.6 °F - 17.6 °F 24% 30.01 in 10.0 mi South 6.9 mph - N/A   Clear